sensor_id;sensor_type;location;lat;lon;timestamp;pressure;altitude;pressure_sealevel;temperature;humidity
76819;BME280;65772;51.096;17.006;2023-09-19T00:01:10;99529.30;;;22.52;61.62
76819;BME280;65772;51.096;17.006;2023-09-19T00:03:41;99529.59;;;22.48;61.54
76819;BME280;65772;51.096;17.006;2023-09-19T00:06:13;99533.67;;;22.40;62.00
76819;BME280;65772;51.096;17.006;2023-09-19T00:08:45;99537.29;;;22.31;62.24
76819;BME280;65772;51.096;17.006;2023-09-19T00:11:17;99536.08;;;22.19;62.70
76819;BME280;65772;51.096;17.006;2023-09-19T00:13:50;99533.65;;;22.14;62.95
76819;BME280;65772;51.096;17.006;2023-09-19T00:16:20;99528.64;;;22.12;62.90
76819;BME280;65772;51.096;17.006;2023-09-19T00:18:51;99528.02;;;22.10;63.17
76819;BME280;65772;51.096;17.006;2023-09-19T00:21:22;99532.67;;;22.06;63.16
76819;BME280;65772;51.096;17.006;2023-09-19T00:23:53;99533.98;;;22.03;63.45
76819;BME280;65772;51.096;17.006;2023-09-19T00:26:24;99534.77;;;22.00;63.44
76819;BME280;65772;51.096;17.006;2023-09-19T00:28:55;99537.23;;;21.99;63.46
76819;BME280;65772;51.096;17.006;2023-09-19T00:31:26;99544.55;;;21.98;63.54
76819;BME280;65772;51.096;17.006;2023-09-19T00:33:59;99542.98;;;21.97;63.41
76819;BME280;65772;51.096;17.006;2023-09-19T00:36:36;99546.17;;;21.95;63.69
76819;BME280;65772;51.096;17.006;2023-09-19T00:39:06;99546.08;;;21.93;63.52
76819;BME280;65772;51.096;17.006;2023-09-19T00:41:37;99543.35;;;21.91;63.65
76819;BME280;65772;51.096;17.006;2023-09-19T00:44:10;99538.15;;;21.90;63.57
76819;BME280;65772;51.096;17.006;2023-09-19T00:46:41;99530.46;;;21.93;63.58
76819;BME280;65772;51.096;17.006;2023-09-19T00:49:13;99529.67;;;21.95;63.71
76819;BME280;65772;51.096;17.006;2023-09-19T00:51:44;99529.50;;;21.94;63.63
76819;BME280;65772;51.096;17.006;2023-09-19T00:54:17;99530.89;;;21.95;63.44
76819;BME280;65772;51.096;17.006;2023-09-19T00:56:48;99524.86;;;21.93;63.53
76819;BME280;65772;51.096;17.006;2023-09-19T00:59:20;99524.58;;;21.91;63.51
76819;BME280;65772;51.096;17.006;2023-09-19T01:01:51;99520.94;;;21.91;63.66
76819;BME280;65772;51.096;17.006;2023-09-19T01:04:23;99520.40;;;21.91;63.41
76819;BME280;65772;51.096;17.006;2023-09-19T01:06:55;99523.85;;;21.92;63.68
76819;BME280;65772;51.096;17.006;2023-09-19T01:09:28;99520.59;;;21.91;63.69
76819;BME280;65772;51.096;17.006;2023-09-19T01:12:00;99524.05;;;21.91;64.01
76819;BME280;65772;51.096;17.006;2023-09-19T01:14:41;99521.06;;;21.92;63.74
76819;BME280;65772;51.096;17.006;2023-09-19T01:17:20;99525.96;;;21.91;63.86
76819;BME280;65772;51.096;17.006;2023-09-19T01:20:06;99535.23;;;21.89;63.88
76819;BME280;65772;51.096;17.006;2023-09-19T01:22:53;99533.13;;;21.90;64.19
76819;BME280;65772;51.096;17.006;2023-09-19T01:25:42;99529.80;;;21.90;64.37
76819;BME280;65772;51.096;17.006;2023-09-19T01:28:19;99528.05;;;21.91;64.46
76819;BME280;65772;51.096;17.006;2023-09-19T01:30:56;99528.23;;;21.90;64.63
76819;BME280;65772;51.096;17.006;2023-09-19T01:33:29;99528.91;;;21.92;64.62
76819;BME280;65772;51.096;17.006;2023-09-19T01:36:20;99524.47;;;21.88;64.81
76819;BME280;65772;51.096;17.006;2023-09-19T01:38:53;99526.81;;;21.85;65.21
76819;BME280;65772;51.096;17.006;2023-09-19T01:41:30;99527.98;;;21.87;65.25
76819;BME280;65772;51.096;17.006;2023-09-19T01:44:06;99521.10;;;21.85;65.54
76819;BME280;65772;51.096;17.006;2023-09-19T01:46:41;99517.20;;;21.82;65.86
76819;BME280;65772;51.096;17.006;2023-09-19T01:49:22;99516.55;;;21.81;66.02
76819;BME280;65772;51.096;17.006;2023-09-19T01:52:02;99517.95;;;21.80;65.89
76819;BME280;65772;51.096;17.006;2023-09-19T01:54:40;99518.39;;;21.77;66.27
76819;BME280;65772;51.096;17.006;2023-09-19T01:57:17;99515.29;;;21.76;66.29
76819;BME280;65772;51.096;17.006;2023-09-19T01:59:54;99517.08;;;21.74;66.38
76819;BME280;65772;51.096;17.006;2023-09-19T02:02:28;99517.94;;;21.74;66.40
76819;BME280;65772;51.096;17.006;2023-09-19T02:05:00;99521.75;;;21.75;66.37
76819;BME280;65772;51.096;17.006;2023-09-19T02:07:31;99521.70;;;21.76;66.71
76819;BME280;65772;51.096;17.006;2023-09-19T02:10:02;99522.19;;;21.78;66.66
76819;BME280;65772;51.096;17.006;2023-09-19T02:12:35;99519.40;;;21.78;66.80
76819;BME280;65772;51.096;17.006;2023-09-19T02:15:07;99521.11;;;21.79;66.79
76819;BME280;65772;51.096;17.006;2023-09-19T02:17:38;99518.16;;;21.79;66.70
76819;BME280;65772;51.096;17.006;2023-09-19T02:20:10;99512.45;;;21.78;66.66
76819;BME280;65772;51.096;17.006;2023-09-19T02:22:44;99513.52;;;21.77;66.70
76819;BME280;65772;51.096;17.006;2023-09-19T02:25:15;99512.14;;;21.77;66.75
76819;BME280;65772;51.096;17.006;2023-09-19T02:27:46;99511.96;;;21.77;66.90
76819;BME280;65772;51.096;17.006;2023-09-19T02:30:16;99509.88;;;21.77;66.95
76819;BME280;65772;51.096;17.006;2023-09-19T02:32:50;99515.06;;;21.77;66.61
76819;BME280;65772;51.096;17.006;2023-09-19T02:35:21;99515.59;;;21.78;66.82
76819;BME280;65772;51.096;17.006;2023-09-19T02:37:51;99515.82;;;21.75;66.68
76819;BME280;65772;51.096;17.006;2023-09-19T02:40:22;99517.78;;;21.74;66.82
76819;BME280;65772;51.096;17.006;2023-09-19T02:42:56;99517.84;;;21.72;66.94
76819;BME280;65772;51.096;17.006;2023-09-19T02:45:28;99511.80;;;21.71;66.99
76819;BME280;65772;51.096;17.006;2023-09-19T02:47:59;99508.34;;;21.70;66.95
76819;BME280;65772;51.096;17.006;2023-09-19T02:50:32;99507.15;;;21.69;67.14
76819;BME280;65772;51.096;17.006;2023-09-19T02:53:03;99500.20;;;21.70;67.16
76819;BME280;65772;51.096;17.006;2023-09-19T02:55:33;99497.23;;;21.70;67.28
76819;BME280;65772;51.096;17.006;2023-09-19T02:58:05;99492.83;;;21.72;67.18
76819;BME280;65772;51.096;17.006;2023-09-19T03:00:37;99494.31;;;21.74;67.04
76819;BME280;65772;51.096;17.006;2023-09-19T03:03:08;99491.15;;;21.75;67.26
76819;BME280;65772;51.096;17.006;2023-09-19T03:05:39;99486.11;;;21.76;67.15
76819;BME280;65772;51.096;17.006;2023-09-19T03:08:09;99488.86;;;21.76;67.34
76819;BME280;65772;51.096;17.006;2023-09-19T03:10:41;99487.30;;;21.77;67.34
76819;BME280;65772;51.096;17.006;2023-09-19T03:13:11;99491.45;;;21.76;67.01
76819;BME280;65772;51.096;17.006;2023-09-19T03:15:43;99495.83;;;21.76;67.14
76819;BME280;65772;51.096;17.006;2023-09-19T03:18:17;99493.44;;;21.74;67.17
76819;BME280;65772;51.096;17.006;2023-09-19T03:20:54;99494.21;;;21.72;67.38
76819;BME280;65772;51.096;17.006;2023-09-19T03:23:25;99493.10;;;21.69;67.28
76819;BME280;65772;51.096;17.006;2023-09-19T03:25:57;99490.77;;;21.65;67.36
76819;BME280;65772;51.096;17.006;2023-09-19T03:28:28;99494.27;;;21.64;67.62
76819;BME280;65772;51.096;17.006;2023-09-19T03:31:04;99494.10;;;21.64;67.64
76819;BME280;65772;51.096;17.006;2023-09-19T03:33:36;99502.63;;;21.64;67.63
76819;BME280;65772;51.096;17.006;2023-09-19T03:36:07;99505.07;;;21.63;67.55
76819;BME280;65772;51.096;17.006;2023-09-19T03:38:38;99504.88;;;21.64;67.70
76819;BME280;65772;51.096;17.006;2023-09-19T03:41:08;99505.48;;;21.67;67.58
76819;BME280;65772;51.096;17.006;2023-09-19T03:43:43;99507.80;;;21.71;67.42
76819;BME280;65772;51.096;17.006;2023-09-19T03:46:14;99511.02;;;21.73;67.62
76819;BME280;65772;51.096;17.006;2023-09-19T03:48:45;99511.70;;;21.73;67.56
76819;BME280;65772;51.096;17.006;2023-09-19T03:51:16;99508.95;;;21.72;67.43
76819;BME280;65772;51.096;17.006;2023-09-19T03:53:46;99506.78;;;21.70;67.29
76819;BME280;65772;51.096;17.006;2023-09-19T03:56:18;99511.23;;;21.66;67.37
76819;BME280;65772;51.096;17.006;2023-09-19T03:58:49;99507.66;;;21.64;67.35
76819;BME280;65772;51.096;17.006;2023-09-19T04:01:20;99506.88;;;21.61;67.37
76819;BME280;65772;51.096;17.006;2023-09-19T04:03:51;99509.38;;;21.59;67.35
76819;BME280;65772;51.096;17.006;2023-09-19T04:06:23;99505.09;;;21.57;67.50
76819;BME280;65772;51.096;17.006;2023-09-19T04:08:54;99502.19;;;21.55;67.70
76819;BME280;65772;51.096;17.006;2023-09-19T04:11:26;99496.86;;;21.52;67.62
76819;BME280;65772;51.096;17.006;2023-09-19T04:13:57;99500.05;;;21.50;67.66
76819;BME280;65772;51.096;17.006;2023-09-19T04:16:28;99503.55;;;21.50;67.89
76819;BME280;65772;51.096;17.006;2023-09-19T04:18:59;99497.33;;;21.49;67.89
76819;BME280;65772;51.096;17.006;2023-09-19T04:21:30;99495.64;;;21.48;67.97
76819;BME280;65772;51.096;17.006;2023-09-19T04:24:01;99499.66;;;21.46;67.98
76819;BME280;65772;51.096;17.006;2023-09-19T04:26:32;99500.20;;;21.45;68.09
76819;BME280;65772;51.096;17.006;2023-09-19T04:29:02;99502.48;;;21.45;68.03
76819;BME280;65772;51.096;17.006;2023-09-19T04:31:35;99501.96;;;21.44;68.04
76819;BME280;65772;51.096;17.006;2023-09-19T04:34:09;99501.98;;;21.43;68.17
76819;BME280;65772;51.096;17.006;2023-09-19T04:36:40;99506.13;;;21.45;68.16
76819;BME280;65772;51.096;17.006;2023-09-19T04:39:10;99511.96;;;21.47;68.16
76819;BME280;65772;51.096;17.006;2023-09-19T04:41:40;99512.24;;;21.50;68.21
76819;BME280;65772;51.096;17.006;2023-09-19T04:44:11;99508.96;;;21.49;68.43
76819;BME280;65772;51.096;17.006;2023-09-19T04:46:41;99508.13;;;21.48;68.18
76819;BME280;65772;51.096;17.006;2023-09-19T04:49:12;99517.20;;;21.46;68.28
76819;BME280;65772;51.096;17.006;2023-09-19T04:51:43;99524.67;;;21.46;68.36
76819;BME280;65772;51.096;17.006;2023-09-19T04:54:16;99527.49;;;21.45;68.27
76819;BME280;65772;51.096;17.006;2023-09-19T04:56:47;99528.55;;;21.44;68.25
76819;BME280;65772;51.096;17.006;2023-09-19T04:59:18;99526.80;;;21.44;68.44
76819;BME280;65772;51.096;17.006;2023-09-19T05:01:48;99525.92;;;21.44;68.33
76819;BME280;65772;51.096;17.006;2023-09-19T05:04:19;99528.06;;;21.43;68.37
76819;BME280;65772;51.096;17.006;2023-09-19T05:06:49;99528.53;;;21.39;68.44
76819;BME280;65772;51.096;17.006;2023-09-19T05:09:20;99532.95;;;21.36;68.43
76819;BME280;65772;51.096;17.006;2023-09-19T05:11:51;99528.09;;;21.36;68.37
76819;BME280;65772;51.096;17.006;2023-09-19T05:14:22;99527.61;;;21.34;68.45
76819;BME280;65772;51.096;17.006;2023-09-19T05:16:53;99526.92;;;21.34;68.47
76819;BME280;65772;51.096;17.006;2023-09-19T05:19:24;99530.06;;;21.33;68.38
76819;BME280;65772;51.096;17.006;2023-09-19T05:21:55;99532.31;;;21.34;68.44
76819;BME280;65772;51.096;17.006;2023-09-19T05:24:25;99534.95;;;21.32;68.57
76819;BME280;65772;51.096;17.006;2023-09-19T05:26:56;99536.87;;;21.32;68.47
76819;BME280;65772;51.096;17.006;2023-09-19T05:29:26;99539.09;;;21.33;68.52
76819;BME280;65772;51.096;17.006;2023-09-19T05:31:58;99541.19;;;21.33;68.51
76819;BME280;65772;51.096;17.006;2023-09-19T05:34:28;99547.16;;;21.30;68.60
76819;BME280;65772;51.096;17.006;2023-09-19T05:36:59;99555.36;;;21.29;68.53
76819;BME280;65772;51.096;17.006;2023-09-19T05:39:30;99556.80;;;21.28;68.62
76819;BME280;65772;51.096;17.006;2023-09-19T05:42:01;99561.54;;;21.25;68.53
76819;BME280;65772;51.096;17.006;2023-09-19T05:44:32;99566.80;;;21.24;68.54
76819;BME280;65772;51.096;17.006;2023-09-19T05:47:04;99570.34;;;21.20;68.74
76819;BME280;65772;51.096;17.006;2023-09-19T05:49:34;99567.56;;;21.21;68.87
76819;BME280;65772;51.096;17.006;2023-09-19T05:52:10;99569.67;;;21.19;68.76
76819;BME280;65772;51.096;17.006;2023-09-19T05:54:40;99574.20;;;21.19;68.74
76819;BME280;65772;51.096;17.006;2023-09-19T05:57:11;99580.11;;;21.18;68.85
76819;BME280;65772;51.096;17.006;2023-09-19T05:59:42;99584.98;;;21.18;68.82
76819;BME280;65772;51.096;17.006;2023-09-19T06:02:13;99586.05;;;21.17;68.83
76819;BME280;65772;51.096;17.006;2023-09-19T06:04:44;99591.65;;;21.14;68.78
76819;BME280;65772;51.096;17.006;2023-09-19T06:07:15;99592.71;;;21.13;68.71
76819;BME280;65772;51.096;17.006;2023-09-19T06:09:46;99589.27;;;21.12;68.71
76819;BME280;65772;51.096;17.006;2023-09-19T06:12:16;99584.90;;;21.13;68.75
76819;BME280;65772;51.096;17.006;2023-09-19T06:14:47;99579.30;;;21.15;68.84
76819;BME280;65772;51.096;17.006;2023-09-19T06:17:18;99582.56;;;21.17;68.90
76819;BME280;65772;51.096;17.006;2023-09-19T06:19:49;99589.98;;;21.19;69.04
76819;BME280;65772;51.096;17.006;2023-09-19T06:22:20;99601.77;;;21.20;68.83
76819;BME280;65772;51.096;17.006;2023-09-19T06:24:50;99605.40;;;21.21;68.26
76819;BME280;65772;51.096;17.006;2023-09-19T06:27:21;99606.08;;;21.22;68.29
76819;BME280;65772;51.096;17.006;2023-09-19T06:29:51;99605.39;;;21.21;68.34
76819;BME280;65772;51.096;17.006;2023-09-19T06:32:28;99606.77;;;21.22;68.50
76819;BME280;65772;51.096;17.006;2023-09-19T06:34:59;99609.05;;;21.21;68.28
76819;BME280;65772;51.096;17.006;2023-09-19T06:37:29;99607.98;;;21.21;67.93
76819;BME280;65772;51.096;17.006;2023-09-19T06:40:01;99609.87;;;21.22;67.90
76819;BME280;65772;51.096;17.006;2023-09-19T06:42:34;99610.05;;;21.23;67.72
76819;BME280;65772;51.096;17.006;2023-09-19T06:45:06;99612.61;;;21.24;67.32
76819;BME280;65772;51.096;17.006;2023-09-19T06:47:37;99612.30;;;21.23;66.96
76819;BME280;65772;51.096;17.006;2023-09-19T06:50:08;99616.27;;;21.24;67.00
76819;BME280;65772;51.096;17.006;2023-09-19T06:52:43;99620.77;;;21.24;66.80
76819;BME280;65772;51.096;17.006;2023-09-19T06:55:13;99624.14;;;21.21;66.67
76819;BME280;65772;51.096;17.006;2023-09-19T06:57:45;99628.05;;;21.18;66.54
76819;BME280;65772;51.096;17.006;2023-09-19T07:00:17;99635.85;;;21.17;66.46
76819;BME280;65772;51.096;17.006;2023-09-19T07:02:58;99638.80;;;21.17;66.55
76819;BME280;65772;51.096;17.006;2023-09-19T07:05:31;99640.21;;;21.17;66.31
76819;BME280;65772;51.096;17.006;2023-09-19T07:08:02;99640.39;;;21.17;66.31
76819;BME280;65772;51.096;17.006;2023-09-19T07:10:33;99647.20;;;21.14;66.02
76819;BME280;65772;51.096;17.006;2023-09-19T07:13:06;99652.55;;;21.16;65.99
76819;BME280;65772;51.096;17.006;2023-09-19T07:15:38;99664.50;;;21.17;65.81
76819;BME280;65772;51.096;17.006;2023-09-19T07:18:16;99669.02;;;21.18;65.53
76819;BME280;65772;51.096;17.006;2023-09-19T07:20:47;99669.70;;;21.18;65.56
76819;BME280;65772;51.096;17.006;2023-09-19T07:23:20;99670.55;;;21.18;65.62
76819;BME280;65772;51.096;17.006;2023-09-19T07:25:51;99670.36;;;21.19;65.38
76819;BME280;65772;51.096;17.006;2023-09-19T07:28:22;99670.19;;;21.19;65.11
76819;BME280;65772;51.096;17.006;2023-09-19T07:30:53;99675.92;;;21.19;65.02
76819;BME280;65772;51.096;17.006;2023-09-19T07:33:23;99673.43;;;21.21;65.29
76819;BME280;65772;51.096;17.006;2023-09-19T07:35:56;99678.59;;;21.24;64.78
76819;BME280;65772;51.096;17.006;2023-09-19T07:38:30;99681.88;;;21.24;64.52
76819;BME280;65772;51.096;17.006;2023-09-19T07:41:02;99683.26;;;21.25;64.40
76819;BME280;65772;51.096;17.006;2023-09-19T07:43:34;99679.59;;;21.26;64.48
76819;BME280;65772;51.096;17.006;2023-09-19T07:46:06;99683.06;;;21.26;64.54
76819;BME280;65772;51.096;17.006;2023-09-19T07:48:38;99687.06;;;21.25;64.29
76819;BME280;65772;51.096;17.006;2023-09-19T07:51:10;99687.83;;;21.22;64.12
76819;BME280;65772;51.096;17.006;2023-09-19T07:53:40;99688.05;;;21.19;64.29
76819;BME280;65772;51.096;17.006;2023-09-19T07:56:11;99696.02;;;21.20;64.34
76819;BME280;65772;51.096;17.006;2023-09-19T07:58:42;99698.09;;;21.22;64.38
76819;BME280;65772;51.096;17.006;2023-09-19T08:01:13;99700.29;;;21.24;64.42
76819;BME280;65772;51.096;17.006;2023-09-19T08:03:45;99705.45;;;21.27;64.28
76819;BME280;65772;51.096;17.006;2023-09-19T08:06:16;99708.54;;;21.28;63.77
76819;BME280;65772;51.096;17.006;2023-09-19T08:08:50;99718.80;;;21.27;63.38
76819;BME280;65772;51.096;17.006;2023-09-19T08:11:23;99718.70;;;21.24;63.28
76819;BME280;65772;51.096;17.006;2023-09-19T08:13:53;99718.04;;;21.22;63.07
76819;BME280;65772;51.096;17.006;2023-09-19T08:16:24;99724.92;;;21.17;63.01
76819;BME280;65772;51.096;17.006;2023-09-19T08:18:55;99726.05;;;21.12;63.22
76819;BME280;65772;51.096;17.006;2023-09-19T08:21:25;99731.61;;;21.11;63.23
76819;BME280;65772;51.096;17.006;2023-09-19T08:23:59;99734.73;;;21.13;63.29
76819;BME280;65772;51.096;17.006;2023-09-19T08:26:31;99741.67;;;21.12;63.25
76819;BME280;65772;51.096;17.006;2023-09-19T08:29:01;99741.57;;;21.09;63.04
76819;BME280;65772;51.096;17.006;2023-09-19T08:31:36;99744.40;;;21.07;63.24
76819;BME280;65772;51.096;17.006;2023-09-19T08:34:07;99740.83;;;21.04;63.12
76819;BME280;65772;51.096;17.006;2023-09-19T08:36:37;99746.60;;;21.02;63.25
76819;BME280;65772;51.096;17.006;2023-09-19T08:39:08;99747.05;;;21.05;63.52
76819;BME280;65772;51.096;17.006;2023-09-19T08:41:40;99749.47;;;21.06;63.28
76819;BME280;65772;51.096;17.006;2023-09-19T08:44:11;99750.87;;;21.05;63.22
76819;BME280;65772;51.096;17.006;2023-09-19T08:46:42;99755.94;;;21.04;63.24
76819;BME280;65772;51.096;17.006;2023-09-19T08:49:19;99753.17;;;21.03;63.26
76819;BME280;65772;51.096;17.006;2023-09-19T08:52:01;99752.67;;;21.02;62.99
76819;BME280;65772;51.096;17.006;2023-09-19T08:54:38;99754.12;;;20.99;63.10
76819;BME280;65772;51.096;17.006;2023-09-19T08:57:11;99758.87;;;20.97;63.00
76819;BME280;65772;51.096;17.006;2023-09-19T08:59:51;99759.65;;;20.93;63.13
76819;BME280;65772;51.096;17.006;2023-09-19T09:02:24;99760.74;;;20.90;63.23
76819;BME280;65772;51.096;17.006;2023-09-19T09:04:56;99761.11;;;20.89;63.42
76819;BME280;65772;51.096;17.006;2023-09-19T09:07:28;99762.99;;;20.90;63.34
76819;BME280;65772;51.096;17.006;2023-09-19T09:09:59;99764.19;;;20.92;63.30
76819;BME280;65772;51.096;17.006;2023-09-19T09:12:30;99771.99;;;20.92;63.36
76819;BME280;65772;51.096;17.006;2023-09-19T09:15:01;99776.67;;;20.92;63.31
76819;BME280;65772;51.096;17.006;2023-09-19T09:17:33;99777.91;;;20.91;63.16
76819;BME280;65772;51.096;17.006;2023-09-19T09:20:06;99780.33;;;20.92;63.26
76819;BME280;65772;51.096;17.006;2023-09-19T09:22:37;99791.08;;;20.92;63.19
76819;BME280;65772;51.096;17.006;2023-09-19T09:25:13;99791.43;;;20.92;63.17
76819;BME280;65772;51.096;17.006;2023-09-19T09:27:44;99792.97;;;20.93;63.12
76819;BME280;65772;51.096;17.006;2023-09-19T09:30:34;99794.80;;;20.96;63.26
76819;BME280;65772;51.096;17.006;2023-09-19T09:33:13;99797.11;;;21.02;63.50
76819;BME280;65772;51.096;17.006;2023-09-19T09:35:52;99796.16;;;21.06;63.10
76819;BME280;65772;51.096;17.006;2023-09-19T09:38:27;99802.35;;;21.08;63.08
76819;BME280;65772;51.096;17.006;2023-09-19T09:41:01;99803.16;;;21.10;63.11
76819;BME280;65772;51.096;17.006;2023-09-19T09:43:37;99800.20;;;21.11;62.71
76819;BME280;65772;51.096;17.006;2023-09-19T09:46:13;99809.90;;;21.12;62.72
76819;BME280;65772;51.096;17.006;2023-09-19T09:49:04;99806.98;;;21.10;62.52
76819;BME280;65772;51.096;17.006;2023-09-19T09:52:02;99809.94;;;21.09;62.54
76819;BME280;65772;51.096;17.006;2023-09-19T09:54:59;99811.16;;;21.10;62.26
76819;BME280;65772;51.096;17.006;2023-09-19T09:57:35;99812.56;;;21.09;62.36
76819;BME280;65772;51.096;17.006;2023-09-19T10:00:07;99814.17;;;21.07;62.19
76819;BME280;65772;51.096;17.006;2023-09-19T10:02:50;99816.62;;;21.07;62.07
76819;BME280;65772;51.096;17.006;2023-09-19T10:05:21;99816.48;;;21.06;61.85
76819;BME280;65772;51.096;17.006;2023-09-19T10:08:13;99823.40;;;21.06;62.04
76819;BME280;65772;51.096;17.006;2023-09-19T10:10:49;99825.54;;;21.11;62.48
76819;BME280;65772;51.096;17.006;2023-09-19T10:13:28;99825.09;;;21.16;62.00
76819;BME280;65772;51.096;17.006;2023-09-19T10:16:00;99830.90;;;21.21;61.41
76819;BME280;65772;51.096;17.006;2023-09-19T10:18:37;99832.21;;;21.25;61.41
76819;BME280;65772;51.096;17.006;2023-09-19T10:21:10;99830.61;;;21.27;61.08
76819;BME280;65772;51.096;17.006;2023-09-19T10:23:39;99834.26;;;21.27;60.83
76819;BME280;65772;51.096;17.006;2023-09-19T10:26:12;99832.59;;;21.24;60.60
76819;BME280;65772;51.096;17.006;2023-09-19T10:28:49;99837.30;;;21.23;60.83
76819;BME280;65772;51.096;17.006;2023-09-19T10:31:21;99840.23;;;21.23;61.05
76819;BME280;65772;51.096;17.006;2023-09-19T10:33:54;99841.77;;;21.25;60.82
76819;BME280;65772;51.096;17.006;2023-09-19T10:36:26;99843.17;;;21.24;60.61
76819;BME280;65772;51.096;17.006;2023-09-19T10:38:58;99849.80;;;21.22;60.26
76819;BME280;65772;51.096;17.006;2023-09-19T10:41:33;99851.73;;;21.21;59.78
76819;BME280;65772;51.096;17.006;2023-09-19T10:44:06;99853.66;;;21.20;59.47
76819;BME280;65772;51.096;17.006;2023-09-19T10:46:39;99852.54;;;21.24;59.17
76819;BME280;65772;51.096;17.006;2023-09-19T10:49:11;99851.89;;;21.30;59.09
76819;BME280;65772;51.096;17.006;2023-09-19T10:51:45;99847.55;;;21.38;58.38
76819;BME280;65772;51.096;17.006;2023-09-19T10:54:20;99850.17;;;21.45;58.47
76819;BME280;65772;51.096;17.006;2023-09-19T10:56:56;99856.15;;;21.49;58.56
76819;BME280;65772;51.096;17.006;2023-09-19T10:59:28;99854.47;;;21.53;58.07
76819;BME280;65772;51.096;17.006;2023-09-19T11:02:18;99856.48;;;21.57;57.96
76819;BME280;65772;51.096;17.006;2023-09-19T11:04:49;99856.70;;;21.62;57.53
76819;BME280;65772;51.096;17.006;2023-09-19T11:07:20;99849.50;;;21.66;57.01
76819;BME280;65772;51.096;17.006;2023-09-19T11:09:52;99851.27;;;21.71;57.43
76819;BME280;65772;51.096;17.006;2023-09-19T11:12:50;99852.92;;;21.75;57.38
76819;BME280;65772;51.096;17.006;2023-09-19T11:18:58;99853.93;;;21.76;56.16
76819;BME280;65772;51.096;17.006;2023-09-19T11:21:54;99857.60;;;21.75;55.51
76819;BME280;65772;51.096;17.006;2023-09-19T11:24:34;99851.48;;;21.77;55.30
76819;BME280;65772;51.096;17.006;2023-09-19T11:27:17;99852.81;;;21.80;55.70
76819;BME280;65772;51.096;17.006;2023-09-19T11:33:21;99846.61;;;21.91;54.67
76819;BME280;65772;51.096;17.006;2023-09-19T11:36:06;99844.86;;;22.00;53.24
76819;BME280;65772;51.096;17.006;2023-09-19T11:39:00;99846.96;;;22.06;52.78
76819;BME280;65772;51.096;17.006;2023-09-19T11:41:43;99854.73;;;22.08;53.10
76819;BME280;65772;51.096;17.006;2023-09-19T11:44:35;99858.23;;;22.07;52.27
76819;BME280;65772;51.096;17.006;2023-09-19T11:47:09;99860.09;;;22.03;52.23
76819;BME280;65772;51.096;17.006;2023-09-19T11:49:42;99856.73;;;21.98;51.43
76819;BME280;65772;51.096;17.006;2023-09-19T11:52:22;99857.63;;;21.95;51.56
76819;BME280;65772;51.096;17.006;2023-09-19T11:54:57;99858.14;;;21.96;51.20
76819;BME280;65772;51.096;17.006;2023-09-19T11:57:31;99865.27;;;21.96;50.69
76819;BME280;65772;51.096;17.006;2023-09-19T12:00:06;99856.94;;;21.96;50.81
76819;BME280;65772;51.096;17.006;2023-09-19T12:02:42;99851.50;;;21.98;51.47
76819;BME280;65772;51.096;17.006;2023-09-19T12:05:17;99853.15;;;22.02;51.15
76819;BME280;65772;51.096;17.006;2023-09-19T12:07:51;99851.27;;;22.08;51.00
76819;BME280;65772;51.096;17.006;2023-09-19T12:10:21;99852.85;;;22.14;50.98
76819;BME280;65772;51.096;17.006;2023-09-19T12:12:53;99850.92;;;22.21;50.16
76819;BME280;65772;51.096;17.006;2023-09-19T12:15:26;99850.89;;;22.29;48.83
76819;BME280;65772;51.096;17.006;2023-09-19T12:17:59;99853.11;;;22.37;48.68
76819;BME280;65772;51.096;17.006;2023-09-19T12:20:44;99852.08;;;22.43;48.95
76819;BME280;65772;51.096;17.006;2023-09-19T12:23:19;99849.09;;;22.50;49.33
76819;BME280;65772;51.096;17.006;2023-09-19T12:25:50;99845.22;;;22.58;49.15
76819;BME280;65772;51.096;17.006;2023-09-19T12:28:24;99845.40;;;22.64;48.34
76819;BME280;65772;51.096;17.006;2023-09-19T12:30:57;99846.94;;;22.71;47.81
76819;BME280;65772;51.096;17.006;2023-09-19T12:33:36;99842.65;;;22.76;48.31
76819;BME280;65772;51.096;17.006;2023-09-19T12:36:22;99843.17;;;22.82;48.34
76819;BME280;65772;51.096;17.006;2023-09-19T12:38:58;99842.85;;;22.87;47.61
76819;BME280;65772;51.096;17.006;2023-09-19T12:41:29;99840.45;;;22.92;46.78
76819;BME280;65772;51.096;17.006;2023-09-19T12:44:00;99842.73;;;22.98;46.45
76819;BME280;65772;51.096;17.006;2023-09-19T12:46:36;99837.48;;;23.04;46.79
76819;BME280;65772;51.096;17.006;2023-09-19T12:49:20;99845.57;;;23.08;46.62
76819;BME280;65772;51.096;17.006;2023-09-19T12:51:55;99847.27;;;23.14;47.09
76819;BME280;65772;51.096;17.006;2023-09-19T12:54:40;99843.69;;;23.18;45.71
76819;BME280;65772;51.096;17.006;2023-09-19T12:57:24;99841.09;;;23.22;44.98
76819;BME280;65772;51.096;17.006;2023-09-19T12:59:56;99834.36;;;23.26;44.72
76819;BME280;65772;51.096;17.006;2023-09-19T13:02:25;99832.48;;;23.31;44.81
76819;BME280;65772;51.096;17.006;2023-09-19T13:04:58;99830.13;;;23.33;44.63
76819;BME280;65772;51.096;17.006;2023-09-19T13:07:43;99828.98;;;23.37;44.22
76819;BME280;65772;51.096;17.006;2023-09-19T13:10:15;99826.83;;;23.40;44.66
76819;BME280;65772;51.096;17.006;2023-09-19T13:12:46;99823.75;;;23.43;44.72
76819;BME280;65772;51.096;17.006;2023-09-19T13:15:17;99817.17;;;23.47;44.46
76819;BME280;65772;51.096;17.006;2023-09-19T13:17:50;99812.03;;;23.51;44.19
76819;BME280;65772;51.096;17.006;2023-09-19T13:20:25;99811.86;;;23.55;43.94
76819;BME280;65772;51.096;17.006;2023-09-19T13:22:58;99817.98;;;23.61;43.92
76819;BME280;65772;51.096;17.006;2023-09-19T13:25:29;99818.91;;;23.64;44.03
76819;BME280;65772;51.096;17.006;2023-09-19T13:28:04;99813.05;;;23.67;44.42
76819;BME280;65772;51.096;17.006;2023-09-19T13:30:38;99817.45;;;23.72;43.98